sensor_id;sensor_type;location;lat;lon;timestamp;temperature;humidity
1704;DHT22;849;48.780;9.216;2024-03-07T00:00:53;9.90;99.90
1704;DHT22;849;48.780;9.216;2024-03-07T00:03:38;9.90;99.90
1704;DHT22;849;48.780;9.216;2024-03-07T00:06:23;9.90;99.90
1704;DHT22;849;48.780;9.216;2024-03-07T00:09:07;9.80;99.90
1704;DHT22;849;48.780;9.216;2024-03-07T00:11:53;9.80;99.90
1704;DHT22;849;48.780;9.216;2024-03-07T00:14:38;9.70;99.90
1704;DHT22;849;48.780;9.216;2024-03-07T00:17:22;9.70;99.90
1704;DHT22;849;48.780;9.216;2024-03-07T00:20:07;9.80;99.90
1704;DHT22;849;48.780;9.216;2024-03-07T00:23:03;9.70;99.90
1704;DHT22;849;48.780;9.216;2024-03-07T00:25:47;9.80;99.90
1704;DHT22;849;48.780;9.216;2024-03-07T00:28:33;9.60;99.90
1704;DHT22;849;48.780;9.216;2024-03-07T00:31:23;9.60;99.90
1704;DHT22;849;48.780;9.216;2024-03-07T00:34:07;9.50;99.90
1704;DHT22;849;48.780;9.216;2024-03-07T00:36:51;9.40;99.90
1704;DHT22;849;48.780;9.216;2024-03-07T00:39:36;9.30;99.90
1704;DHT22;849;48.780;9.216;2024-03-07T00:42:20;9.30;99.90
1704;DHT22;849;48.780;9.216;2024-03-07T00:45:06;9.40;99.90
1704;DHT22;849;48.780;9.216;2024-03-07T00:47:50;9.50;99.90
1704;DHT22;849;48.780;9.216;2024-03-07T00:50:34;9.50;99.90
1704;DHT22;849;48.780;9.216;2024-03-07T00:53:18;9.60;99.90
1704;DHT22;849;48.780;9.216;2024-03-07T00:56:03;10.00;99.90
1704;DHT22;849;48.780;9.216;2024-03-07T00:58:53;9.60;99.90
1704;DHT22;849;48.780;9.216;2024-03-07T01:01:37;9.60;99.90
1704;DHT22;849;48.780;9.216;2024-03-07T01:04:22;9.50;99.90
1704;DHT22;849;48.780;9.216;2024-03-07T01:07:06;9.60;99.90
1704;DHT22;849;48.780;9.216;2024-03-07T01:09:50;9.60;99.90
1704;DHT22;849;48.780;9.216;2024-03-07T01:12:35;9.60;99.90
1704;DHT22;849;48.780;9.216;2024-03-07T01:15:19;9.50;99.90
1704;DHT22;849;48.780;9.216;2024-03-07T01:18:04;9.50;99.90
1704;DHT22;849;48.780;9.216;2024-03-07T01:20:48;9.50;99.90
1704;DHT22;849;48.780;9.216;2024-03-07T01:23:32;9.50;99.90
1704;DHT22;849;48.780;9.216;2024-03-07T01:26:16;9.40;99.90
1704;DHT22;849;48.780;9.216;2024-03-07T01:29:01;9.40;99.90
1704;DHT22;849;48.780;9.216;2024-03-07T01:31:45;9.40;99.90
1704;DHT22;849;48.780;9.216;2024-03-07T01:34:30;9.40;99.90
1704;DHT22;849;48.780;9.216;2024-03-07T01:37:14;9.60;99.90
1704;DHT22;849;48.780;9.216;2024-03-07T01:39:58;9.30;99.90
1704;DHT22;849;48.780;9.216;2024-03-07T01:42:42;9.30;99.90
1704;DHT22;849;48.780;9.216;2024-03-07T01:45:26;9.20;99.90
1704;DHT22;849;48.780;9.216;2024-03-07T01:48:11;9.20;99.90
1704;DHT22;849;48.780;9.216;2024-03-07T01:50:57;9.10;99.90
1704;DHT22;849;48.780;9.216;2024-03-07T01:53:41;9.10;99.90
1704;DHT22;849;48.780;9.216;2024-03-07T01:56:26;9.10;99.90
1704;DHT22;849;48.780;9.216;2024-03-07T01:59:10;9.10;99.90
1704;DHT22;849;48.780;9.216;2024-03-07T02:01:57;9.10;99.90
1704;DHT22;849;48.780;9.216;2024-03-07T02:04:41;9.00;99.90
1704;DHT22;849;48.780;9.216;2024-03-07T02:07:26;9.00;99.90
1704;DHT22;849;48.780;9.216;2024-03-07T02:10:11;9.00;99.90
1704;DHT22;849;48.780;9.216;2024-03-07T02:12:55;8.90;99.90
1704;DHT22;849;48.780;9.216;2024-03-07T02:15:40;8.80;99.90
1704;DHT22;849;48.780;9.216;2024-03-07T02:18:26;8.80;99.90
1704;DHT22;849;48.780;9.216;2024-03-07T02:21:10;8.80;99.90
1704;DHT22;849;48.780;9.216;2024-03-07T02:23:55;8.70;99.90
1704;DHT22;849;48.780;9.216;2024-03-07T02:26:40;8.60;99.90
1704;DHT22;849;48.780;9.216;2024-03-07T02:29:24;8.60;99.90
1704;DHT22;849;48.780;9.216;2024-03-07T02:32:08;8.50;99.90
1704;DHT22;849;48.780;9.216;2024-03-07T02:34:53;8.40;99.90
1704;DHT22;849;48.780;9.216;2024-03-07T02:37:37;8.30;99.90
1704;DHT22;849;48.780;9.216;2024-03-07T02:40:22;8.20;99.90
1704;DHT22;849;48.780;9.216;2024-03-07T02:43:06;8.20;99.90
1704;DHT22;849;48.780;9.216;2024-03-07T02:45:51;8.20;99.90
1704;DHT22;849;48.780;9.216;2024-03-07T02:48:35;8.10;99.90
1704;DHT22;849;48.780;9.216;2024-03-07T02:51:19;8.00;99.90
1704;DHT22;849;48.780;9.216;2024-03-07T02:54:03;7.90;99.90
1704;DHT22;849;48.780;9.216;2024-03-07T02:56:49;7.90;99.90
1704;DHT22;849;48.780;9.216;2024-03-07T02:59:33;7.80;99.90
1704;DHT22;849;48.780;9.216;2024-03-07T03:02:18;7.80;99.90
1704;DHT22;849;48.780;9.216;2024-03-07T03:05:02;7.70;99.90
1704;DHT22;849;48.780;9.216;2024-03-07T03:07:46;7.60;99.90
1704;DHT22;849;48.780;9.216;2024-03-07T03:10:39;7.60;99.90
1704;DHT22;849;48.780;9.216;2024-03-07T03:13:25;7.50;99.90
1704;DHT22;849;48.780;9.216;2024-03-07T03:16:11;7.50;99.90
1704;DHT22;849;48.780;9.216;2024-03-07T03:18:55;7.50;99.90
1704;DHT22;849;48.780;9.216;2024-03-07T03:21:40;7.40;99.90
1704;DHT22;849;48.780;9.216;2024-03-07T03:24:24;7.30;99.90
1704;DHT22;849;48.780;9.216;2024-03-07T03:27:09;7.30;99.90
1704;DHT22;849;48.780;9.216;2024-03-07T03:29:54;7.30;99.90
1704;DHT22;849;48.780;9.216;2024-03-07T03:32:39;7.20;99.90
1704;DHT22;849;48.780;9.216;2024-03-07T03:35:23;7.20;99.90
1704;DHT22;849;48.780;9.216;2024-03-07T03:38:07;7.20;99.90
1704;DHT22;849;48.780;9.216;2024-03-07T03:40:51;7.10;99.90
1704;DHT22;849;48.780;9.216;2024-03-07T03:43:35;7.10;99.90
1704;DHT22;849;48.780;9.216;2024-03-07T03:46:20;6.90;99.90
1704;DHT22;849;48.780;9.216;2024-03-07T03:49:04;6.90;99.90
1704;DHT22;849;48.780;9.216;2024-03-07T03:51:50;6.90;99.90
1704;DHT22;849;48.780;9.216;2024-03-07T03:54:34;6.90;99.90
1704;DHT22;849;48.780;9.216;2024-03-07T03:57:18;6.90;99.90
1704;DHT22;849;48.780;9.216;2024-03-07T04:00:03;6.90;99.90
1704;DHT22;849;48.780;9.216;2024-03-07T04:02:53;7.00;99.90
1704;DHT22;849;48.780;9.216;2024-03-07T04:05:38;6.90;99.90
1704;DHT22;849;48.780;9.216;2024-03-07T04:08:22;6.80;99.90
1704;DHT22;849;48.780;9.216;2024-03-07T04:11:06;6.80;99.90
1704;DHT22;849;48.780;9.216;2024-03-07T04:13:53;6.70;99.90
1704;DHT22;849;48.780;9.216;2024-03-07T04:16:37;6.70;99.90
1704;DHT22;849;48.780;9.216;2024-03-07T04:19:23;6.70;99.90
1704;DHT22;849;48.780;9.216;2024-03-07T04:22:07;6.70;99.90
1704;DHT22;849;48.780;9.216;2024-03-07T04:24:55;6.80;99.90
1704;DHT22;849;48.780;9.216;2024-03-07T04:27:39;6.70;99.90
1704;DHT22;849;48.780;9.216;2024-03-07T04:30:24;7.00;99.90
1704;DHT22;849;48.780;9.216;2024-03-07T04:33:08;6.70;99.90
1704;DHT22;849;48.780;9.216;2024-03-07T04:35:52;6.60;99.90
1704;DHT22;849;48.780;9.216;2024-03-07T04:38:36;6.60;99.90
1704;DHT22;849;48.780;9.216;2024-03-07T04:41:20;6.60;99.90
1704;DHT22;849;48.780;9.216;2024-03-07T04:44:05;6.60;99.90
1704;DHT22;849;48.780;9.216;2024-03-07T04:46:49;6.60;99.90
1704;DHT22;849;48.780;9.216;2024-03-07T04:49:33;6.60;99.90
1704;DHT22;849;48.780;9.216;2024-03-07T04:52:17;6.60;99.90
1704;DHT22;849;48.780;9.216;2024-03-07T04:55:01;6.60;99.90
1704;DHT22;849;48.780;9.216;2024-03-07T04:57:46;6.60;99.90
1704;DHT22;849;48.780;9.216;2024-03-07T05:00:30;6.60;99.90
1704;DHT22;849;48.780;9.216;2024-03-07T05:03:14;6.50;99.90
1704;DHT22;849;48.780;9.216;2024-03-07T05:05:59;6.50;99.90
1704;DHT22;849;48.780;9.216;2024-03-07T05:08:43;6.50;99.90
1704;DHT22;849;48.780;9.216;2024-03-07T05:11:31;6.40;99.90
1704;DHT22;849;48.780;9.216;2024-03-07T05:14:15;6.40;99.90
1704;DHT22;849;48.780;9.216;2024-03-07T05:17:00;6.40;99.90
1704;DHT22;849;48.780;9.216;2024-03-07T05:19:52;6.30;99.90
1704;DHT22;849;48.780;9.216;2024-03-07T05:22:36;6.20;99.90
1704;DHT22;849;48.780;9.216;2024-03-07T05:25:24;6.20;99.90
1704;DHT22;849;48.780;9.216;2024-03-07T05:28:08;6.10;99.90
1704;DHT22;849;48.780;9.216;2024-03-07T05:30:52;6.10;99.90
1704;DHT22;849;48.780;9.216;2024-03-07T05:33:37;6.10;99.90
1704;DHT22;849;48.780;9.216;2024-03-07T05:36:22;6.10;99.90
1704;DHT22;849;48.780;9.216;2024-03-07T05:39:06;6.00;99.90
1704;DHT22;849;48.780;9.216;2024-03-07T05:41:54;6.00;99.90
1704;DHT22;849;48.780;9.216;2024-03-07T05:44:41;5.90;99.90
1704;DHT22;849;48.780;9.216;2024-03-07T05:47:25;6.00;99.90
1704;DHT22;849;48.780;9.216;2024-03-07T05:50:10;5.90;99.90
1704;DHT22;849;48.780;9.216;2024-03-07T05:52:54;5.90;99.90
1704;DHT22;849;48.780;9.216;2024-03-07T05:55:38;5.90;99.90
1704;DHT22;849;48.780;9.216;2024-03-07T05:58:23;5.90;99.90
1704;DHT22;849;48.780;9.216;2024-03-07T06:01:07;5.90;99.90
1704;DHT22;849;48.780;9.216;2024-03-07T06:03:52;5.80;99.90
1704;DHT22;849;48.780;9.216;2024-03-07T06:06:36;5.80;99.90
1704;DHT22;849;48.780;9.216;2024-03-07T06:09:21;5.70;99.90
1704;DHT22;849;48.780;9.216;2024-03-07T06:12:08;5.70;99.90
1704;DHT22;849;48.780;9.216;2024-03-07T06:14:52;5.60;99.90
1704;DHT22;849;48.780;9.216;2024-03-07T06:17:37;5.60;99.90
1704;DHT22;849;48.780;9.216;2024-03-07T06:20:21;5.60;99.90
1704;DHT22;849;48.780;9.216;2024-03-07T06:23:09;5.50;99.90
1704;DHT22;849;48.780;9.216;2024-03-07T06:25:55;5.50;99.90
1704;DHT22;849;48.780;9.216;2024-03-07T06:28:42;5.50;99.90
1704;DHT22;849;48.780;9.216;2024-03-07T06:31:26;5.60;99.90
1704;DHT22;849;48.780;9.216;2024-03-07T06:34:10;5.60;99.90
1704;DHT22;849;48.780;9.216;2024-03-07T06:36:56;5.50;99.90
1704;DHT22;849;48.780;9.216;2024-03-07T06:39:41;5.50;99.90
1704;DHT22;849;48.780;9.216;2024-03-07T06:42:25;5.50;99.90
1704;DHT22;849;48.780;9.216;2024-03-07T06:45:10;5.60;99.90
1704;DHT22;849;48.780;9.216;2024-03-07T06:47:56;5.60;99.90
1704;DHT22;849;48.780;9.216;2024-03-07T06:50:40;5.60;99.90
1704;DHT22;849;48.780;9.216;2024-03-07T06:53:24;5.70;99.90
1704;DHT22;849;48.780;9.216;2024-03-07T06:56:10;5.70;99.90
1704;DHT22;849;48.780;9.216;2024-03-07T06:58:54;5.70;99.90
1704;DHT22;849;48.780;9.216;2024-03-07T07:01:38;5.70;99.90
1704;DHT22;849;48.780;9.216;2024-03-07T07:04:27;5.70;99.90
1704;DHT22;849;48.780;9.216;2024-03-07T07:07:25;5.80;99.90
1704;DHT22;849;48.780;9.216;2024-03-07T07:10:10;5.90;99.90
1704;DHT22;849;48.780;9.216;2024-03-07T07:12:59;5.90;99.90
1704;DHT22;849;48.780;9.216;2024-03-07T07:15:44;5.90;99.90
1704;DHT22;849;48.780;9.216;2024-03-07T07:18:28;5.90;99.90
1704;DHT22;849;48.780;9.216;2024-03-07T07:21:13;6.00;99.90
1704;DHT22;849;48.780;9.216;2024-03-07T07:23:59;6.10;99.90
1704;DHT22;849;48.780;9.216;2024-03-07T07:26:44;6.10;99.90
1704;DHT22;849;48.780;9.216;2024-03-07T07:29:28;6.10;99.90
1704;DHT22;849;48.780;9.216;2024-03-07T07:32:12;6.10;99.90
1704;DHT22;849;48.780;9.216;2024-03-07T07:34:56;6.20;99.90
1704;DHT22;849;48.780;9.216;2024-03-07T07:37:41;6.20;99.90
1704;DHT22;849;48.780;9.216;2024-03-07T07:40:25;6.20;99.90
1704;DHT22;849;48.780;9.216;2024-03-07T07:43:11;6.30;99.90
1704;DHT22;849;48.780;9.216;2024-03-07T07:45:58;6.20;99.90
1704;DHT22;849;48.780;9.216;2024-03-07T07:48:43;6.20;99.90
1704;DHT22;849;48.780;9.216;2024-03-07T07:51:27;6.20;99.90
1704;DHT22;849;48.780;9.216;2024-03-07T07:54:11;6.20;99.90
1704;DHT22;849;48.780;9.216;2024-03-07T07:56:56;6.10;99.90
1704;DHT22;849;48.780;9.216;2024-03-07T07:59:41;6.20;99.90
1704;DHT22;849;48.780;9.216;2024-03-07T08:02:25;6.20;99.90
1704;DHT22;849;48.780;9.216;2024-03-07T08:05:09;6.30;99.90
1704;DHT22;849;48.780;9.216;2024-03-07T08:08:02;6.30;99.90
1704;DHT22;849;48.780;9.216;2024-03-07T08:10:48;6.30;99.90
1704;DHT22;849;48.780;9.216;2024-03-07T08:13:33;6.30;99.90
1704;DHT22;849;48.780;9.216;2024-03-07T08:16:17;6.40;99.90
1704;DHT22;849;48.780;9.216;2024-03-07T08:19:01;6.50;99.90
1704;DHT22;849;48.780;9.216;2024-03-07T08:21:47;6.30;99.90
1704;DHT22;849;48.780;9.216;2024-03-07T08:24:31;6.20;99.90
1704;DHT22;849;48.780;9.216;2024-03-07T08:27:16;6.30;99.90
1704;DHT22;849;48.780;9.216;2024-03-07T08:30:00;6.30;99.90
1704;DHT22;849;48.780;9.216;2024-03-07T08:32:53;6.40;99.90
1704;DHT22;849;48.780;9.216;2024-03-07T08:35:38;6.40;99.90
1704;DHT22;849;48.780;9.216;2024-03-07T08:38:22;6.50;99.90
1704;DHT22;849;48.780;9.216;2024-03-07T08:41:06;6.60;99.90
1704;DHT22;849;48.780;9.216;2024-03-07T08:43:50;6.70;99.90
1704;DHT22;849;48.780;9.216;2024-03-07T08:46:35;6.80;99.90
1704;DHT22;849;48.780;9.216;2024-03-07T08:49:19;7.00;99.90
1704;DHT22;849;48.780;9.216;2024-03-07T08:52:03;7.10;99.90
1704;DHT22;849;48.780;9.216;2024-03-07T08:54:48;7.40;99.90
1704;DHT22;849;48.780;9.216;2024-03-07T08:57:32;7.20;99.90
1704;DHT22;849;48.780;9.216;2024-03-07T09:00:18;7.20;99.90
1704;DHT22;849;48.780;9.216;2024-03-07T09:03:08;7.10;99.90
1704;DHT22;849;48.780;9.216;2024-03-07T09:05:53;7.10;99.90
1704;DHT22;849;48.780;9.216;2024-03-07T09:08:39;7.00;99.90
1704;DHT22;849;48.780;9.216;2024-03-07T09:11:23;7.10;99.90
1704;DHT22;849;48.780;9.216;2024-03-07T09:14:08;7.10;99.90
1704;DHT22;849;48.780;9.216;2024-03-07T09:16:53;7.30;99.90
1704;DHT22;849;48.780;9.216;2024-03-07T09:19:38;7.40;99.90
1704;DHT22;849;48.780;9.216;2024-03-07T09:22:22;7.50;99.90
1704;DHT22;849;48.780;9.216;2024-03-07T09:25:07;7.50;99.90
1704;DHT22;849;48.780;9.216;2024-03-07T09:27:52;7.60;99.90
1704;DHT22;849;48.780;9.216;2024-03-07T09:30:36;7.70;99.90
1704;DHT22;849;48.780;9.216;2024-03-07T09:33:22;7.80;99.90
1704;DHT22;849;48.780;9.216;2024-03-07T09:36:06;7.80;99.90
1704;DHT22;849;48.780;9.216;2024-03-07T09:38:51;7.80;99.90
1704;DHT22;849;48.780;9.216;2024-03-07T09:41:35;7.80;99.90
1704;DHT22;849;48.780;9.216;2024-03-07T09:44:21;7.70;99.90
1704;DHT22;849;48.780;9.216;2024-03-07T09:47:07;7.60;99.90
1704;DHT22;849;48.780;9.216;2024-03-07T09:49:51;7.70;99.90
1704;DHT22;849;48.780;9.216;2024-03-07T09:52:37;7.80;99.90
1704;DHT22;849;48.780;9.216;2024-03-07T09:55:22;7.80;99.90
1704;DHT22;849;48.780;9.216;2024-03-07T09:58:08;7.80;99.90
1704;DHT22;849;48.780;9.216;2024-03-07T10:00:54;7.90;99.90
1704;DHT22;849;48.780;9.216;2024-03-07T10:03:43;7.90;99.90
1704;DHT22;849;48.780;9.216;2024-03-07T10:06:28;8.10;99.90
1704;DHT22;849;48.780;9.216;2024-03-07T10:09:14;8.10;99.90
1704;DHT22;849;48.780;9.216;2024-03-07T10:12:00;8.10;99.90
1704;DHT22;849;48.780;9.216;2024-03-07T10:14:51;8.20;99.90
1704;DHT22;849;48.780;9.216;2024-03-07T10:17:40;8.30;99.90
1704;DHT22;849;48.780;9.216;2024-03-07T10:20:24;8.30;99.90
1704;DHT22;849;48.780;9.216;2024-03-07T10:23:09;8.40;99.90
1704;DHT22;849;48.780;9.216;2024-03-07T10:25:53;8.30;99.90
1704;DHT22;849;48.780;9.216;2024-03-07T10:28:39;8.30;99.90
1704;DHT22;849;48.780;9.216;2024-03-07T10:31:31;8.40;99.90
1704;DHT22;849;48.780;9.216;2024-03-07T10:34:16;8.40;99.90
1704;DHT22;849;48.780;9.216;2024-03-07T10:37:00;8.50;99.90
1704;DHT22;849;48.780;9.216;2024-03-07T10:39:48;8.50;99.90
1704;DHT22;849;48.780;9.216;2024-03-07T10:42:35;8.60;99.90
1704;DHT22;849;48.780;9.216;2024-03-07T10:45:22;8.60;99.90
1704;DHT22;849;48.780;9.216;2024-03-07T10:48:11;8.60;99.90
1704;DHT22;849;48.780;9.216;2024-03-07T10:51:21;8.60;99.90
1704;DHT22;849;48.780;9.216;2024-03-07T10:54:19;8.60;99.90
1704;DHT22;849;48.780;9.216;2024-03-07T10:57:25;8.60;99.90
1704;DHT22;849;48.780;9.216;2024-03-07T11:00:13;8.70;99.90
1704;DHT22;849;48.780;9.216;2024-03-07T11:03:21;8.80;99.90
1704;DHT22;849;48.780;9.216;2024-03-07T11:06:06;8.90;99.90
1704;DHT22;849;48.780;9.216;2024-03-07T11:08:55;8.90;99.90
1704;DHT22;849;48.780;9.216;2024-03-07T11:11:41;9.10;99.90
1704;DHT22;849;48.780;9.216;2024-03-07T11:14:27;9.20;99.90
1704;DHT22;849;48.780;9.216;2024-03-07T11:17:12;9.10;99.90
1704;DHT22;849;48.780;9.216;2024-03-07T11:20:24;9.20;99.90
1704;DHT22;849;48.780;9.216;2024-03-07T11:23:31;8.90;99.90
1704;DHT22;849;48.780;9.216;2024-03-07T11:26:25;9.00;99.90
1704;DHT22;849;48.780;9.216;2024-03-07T11:29:42;9.10;99.90
1704;DHT22;849;48.780;9.216;2024-03-07T11:32:29;9.30;99.90
1704;DHT22;849;48.780;9.216;2024-03-07T11:35:13;9.40;99.90
1704;DHT22;849;48.780;9.216;2024-03-07T11:37:59;9.40;99.90
1704;DHT22;849;48.780;9.216;2024-03-07T11:40:44;9.40;99.90
1704;DHT22;849;48.780;9.216;2024-03-07T11:43:28;9.40;99.90
1704;DHT22;849;48.780;9.216;2024-03-07T11:46:12;9.40;99.90
1704;DHT22;849;48.780;9.216;2024-03-07T11:49:00;9.50;99.90
1704;DHT22;849;48.780;9.216;2024-03-07T11:51:45;9.60;99.90
1704;DHT22;849;48.780;9.216;2024-03-07T11:54:29;9.60;99.90
1704;DHT22;849;48.780;9.216;2024-03-07T11:57:15;9.70;99.90
1704;DHT22;849;48.780;9.216;2024-03-07T12:00:01;9.80;99.90
1704;DHT22;849;48.780;9.216;2024-03-07T12:02:54;9.80;99.90
1704;DHT22;849;48.780;9.216;2024-03-07T12:05:39;9.80;99.90
1704;DHT22;849;48.780;9.216;2024-03-07T12:08:23;9.80;99.90
1704;DHT22;849;48.780;9.216;2024-03-07T12:11:08;9.90;99.90
1704;DHT22;849;48.780;9.216;2024-03-07T12:13:56;9.90;99.90
1704;DHT22;849;48.780;9.216;2024-03-07T12:16:40;9.90;99.90
1704;DHT22;849;48.780;9.216;2024-03-07T12:19:25;9.90;99.90
1704;DHT22;849;48.780;9.216;2024-03-07T12:22:11;9.90;99.90
1704;DHT22;849;48.780;9.216;2024-03-07T12:25:03;9.90;99.90
1704;DHT22;849;48.780;9.216;2024-03-07T12:28:02;9.80;99.90
1704;DHT22;849;48.780;9.216;2024-03-07T12:33:30;9.90;99.90
1704;DHT22;849;48.780;9.216;2024-03-07T12:36:16;9.80;99.90
1704;DHT22;849;48.780;9.216;2024-03-07T12:39:01;9.70;99.90
1704;DHT22;849;48.780;9.216;2024-03-07T12:42:09;9.70;99.90
1704;DHT22;849;48.780;9.216;2024-03-07T12:44:56;9.70;99.90
1704;DHT22;849;48.780;9.216;2024-03-07T12:47:45;9.70;99.90
1704;DHT22;849;48.780;9.216;2024-03-07T12:50:30;9.70;99.90
1704;DHT22;849;48.780;9.216;2024-03-07T12:53:14;9.80;99.90
1704;DHT22;849;48.780;9.216;2024-03-07T12:55:59;9.90;99.90
1704;DHT22;849;48.780;9.216;2024-03-07T12:58:44;9.80;99.90
1704;DHT22;849;48.780;9.216;2024-03-07T13:01:30;9.80;99.90
1704;DHT22;849;48.780;9.216;2024-03-07T13:04:14;9.80;99.90
1704;DHT22;849;48.780;9.216;2024-03-07T13:07:00;9.80;99.90
1704;DHT22;849;48.780;9.216;2024-03-07T13:09:48;9.80;99.90
1704;DHT22;849;48.780;9.216;2024-03-07T13:12:32;9.90;99.80
1704;DHT22;849;48.780;9.216;2024-03-07T13:15:18;9.80;98.70
1704;DHT22;849;48.780;9.216;2024-03-07T13:18:06;9.90;99.90
1704;DHT22;849;48.780;9.216;2024-03-07T13:20:52;9.90;98.70
1704;DHT22;849;48.780;9.216;2024-03-07T13:23:36;10.00;98.40
1704;DHT22;849;48.780;9.216;2024-03-07T13:26:23;10.00;97.80
1704;DHT22;849;48.780;9.216;2024-03-07T13:29:10;10.00;98.70
1704;DHT22;849;48.780;9.216;2024-03-07T13:31:54;10.00;99.30
1704;DHT22;849;48.780;9.216;2024-03-07T13:34:39;10.00;98.20
1704;DHT22;849;48.780;9.216;2024-03-07T13:37:24;10.10;97.60
1704;DHT22;849;48.780;9.216;2024-03-07T13:40:09;10.10;97.30
1704;DHT22;849;48.780;9.216;2024-03-07T13:43:07;10.00;96.90
1704;DHT22;849;48.780;9.216;2024-03-07T13:45:51;9.90;97.40
1704;DHT22;849;48.780;9.216;2024-03-07T13:48:35;9.90;96.80
1704;DHT22;849;48.780;9.216;2024-03-07T13:51:21;9.90;97.40
1704;DHT22;849;48.780;9.216;2024-03-07T13:54:05;9.90;97.80
1704;DHT22;849;48.780;9.216;2024-03-07T13:57:28;9.90;98.40
1704;DHT22;849;48.780;9.216;2024-03-07T14:00:57;9.90;98.70
1704;DHT22;849;48.780;9.216;2024-03-07T14:09:43;9.90;98.80
1704;DHT22;849;48.780;9.216;2024-03-07T14:12:53;10.00;98.60
1704;DHT22;849;48.780;9.216;2024-03-07T14:15:57;10.00;98.00
1704;DHT22;849;48.780;9.216;2024-03-07T14:22:48;10.20;97.10
1704;DHT22;849;48.780;9.216;2024-03-07T14:26:02;10.20;97.70
1704;DHT22;849;48.780;9.216;2024-03-07T14:31:54;10.30;97.40
1704;DHT22;849;48.780;9.216;2024-03-07T14:41:01;10.40;96.40
1704;DHT22;849;48.780;9.216;2024-03-07T14:43:44;10.40;96.00
1704;DHT22;849;48.780;9.216;2024-03-07T14:46:29;10.50;94.90
1704;DHT22;849;48.780;9.216;2024-03-07T14:49:15;10.40;94.10
1704;DHT22;849;48.780;9.216;2024-03-07T14:52:01;10.40;93.50
1704;DHT22;849;48.780;9.216;2024-03-07T14:54:46;10.40;93.30
1704;DHT22;849;48.780;9.216;2024-03-07T14:57:31;10.70;94.00
1704;DHT22;849;48.780;9.216;2024-03-07T15:00:16;10.50;93.10
1704;DHT22;849;48.780;9.216;2024-03-07T15:03:03;10.50;93.20
1704;DHT22;849;48.780;9.216;2024-03-07T15:05:50;10.60;93.70
1704;DHT22;849;48.780;9.216;2024-03-07T15:08:35;10.60;92.80
1704;DHT22;849;48.780;9.216;2024-03-07T15:11:28;10.60;93.40
1704;DHT22;849;48.780;9.216;2024-03-07T15:14:13;10.60;93.70
1704;DHT22;849;48.780;9.216;2024-03-07T15:16:57;10.60;92.90
1704;DHT22;849;48.780;9.216;2024-03-07T15:19:41;10.50;93.30
1704;DHT22;849;48.780;9.216;2024-03-07T15:22:25;10.50;92.70
1704;DHT22;849;48.780;9.216;2024-03-07T15:25:09;10.50;92.10
1704;DHT22;849;48.780;9.216;2024-03-07T15:27:57;10.50;92.50
1704;DHT22;849;48.780;9.216;2024-03-07T15:30:43;10.50;92.20
1704;DHT22;849;48.780;9.216;2024-03-07T15:33:27;10.50;91.80
1704;DHT22;849;48.780;9.216;2024-03-07T15:36:12;10.50;91.60
1704;DHT22;849;48.780;9.216;2024-03-07T15:38:57;10.60;91.70
1704;DHT22;849;48.780;9.216;2024-03-07T15:41:41;10.70;91.70
1704;DHT22;849;48.780;9.216;2024-03-07T15:44:25;10.80;91.20
1704;DHT22;849;48.780;9.216;2024-03-07T15:47:09;10.60;91.30
1704;DHT22;849;48.780;9.216;2024-03-07T15:49:54;10.50;90.80
1704;DHT22;849;48.780;9.216;2024-03-07T15:52:41;10.60;91.10
1704;DHT22;849;48.780;9.216;2024-03-07T15:55:25;10.70;90.20
1704;DHT22;849;48.780;9.216;2024-03-07T15:58:11;10.80;90.10
1704;DHT22;849;48.780;9.216;2024-03-07T16:00:56;10.80;90.70
1704;DHT22;849;48.780;9.216;2024-03-07T16:03:42;10.70;90.50
1704;DHT22;849;48.780;9.216;2024-03-07T16:06:26;10.60;88.40
1704;DHT22;849;48.780;9.216;2024-03-07T16:09:10;10.50;87.80
1704;DHT22;849;48.780;9.216;2024-03-07T16:11:57;10.40;88.60
1704;DHT22;849;48.780;9.216;2024-03-07T16:14:41;10.40;88.90
1704;DHT22;849;48.780;9.216;2024-03-07T16:17:25;10.30;87.50
1704;DHT22;849;48.780;9.216;2024-03-07T16:20:10;10.20;87.30
1704;DHT22;849;48.780;9.216;2024-03-07T16:22:57;10.20;87.70
1704;DHT22;849;48.780;9.216;2024-03-07T16:25:41;10.20;88.10
1704;DHT22;849;48.780;9.216;2024-03-07T16:28:25;10.30;88.50
1704;DHT22;849;48.780;9.216;2024-03-07T16:31:12;10.30;88.40
1704;DHT22;849;48.780;9.216;2024-03-07T16:33:56;10.30;88.40
1704;DHT22;849;48.780;9.216;2024-03-07T16:36:42;10.30;89.00
1704;DHT22;849;48.780;9.216;2024-03-07T16:39:27;10.30;87.80
1704;DHT22;849;48.780;9.216;2024-03-07T16:42:11;10.30;90.20
1704;DHT22;849;48.780;9.216;2024-03-07T16:44:55;10.60;90.70
1704;DHT22;849;48.780;9.216;2024-03-07T16:47:40;10.40;90.20
1704;DHT22;849;48.780;9.216;2024-03-07T16:50:27;10.40;90.40
1704;DHT22;849;48.780;9.216;2024-03-07T16:53:12;10.30;90.20
1704;DHT22;849;48.780;9.216;2024-03-07T16:55:58;10.30;89.80
1704;DHT22;849;48.780;9.216;2024-03-07T16:58:42;10.30;89.40
1704;DHT22;849;48.780;9.216;2024-03-07T17:01:26;10.30;90.00
1704;DHT22;849;48.780;9.216;2024-03-07T17:04:11;10.40;90.00
1704;DHT22;849;48.780;9.216;2024-03-07T17:06:56;10.40;89.80
1704;DHT22;849;48.780;9.216;2024-03-07T17:09:40;10.40;90.10
1704;DHT22;849;48.780;9.216;2024-03-07T17:12:25;10.40;91.00
1704;DHT22;849;48.780;9.216;2024-03-07T17:15:20;10.30;90.60
1704;DHT22;849;48.780;9.216;2024-03-07T17:18:04;10.40;91.20
1704;DHT22;849;48.780;9.216;2024-03-07T17:20:48;10.30;91.50
1704;DHT22;849;48.780;9.216;2024-03-07T17:23:32;10.30;91.10
1704;DHT22;849;48.780;9.216;2024-03-07T17:26:16;10.70;91.00
1704;DHT22;849;48.780;9.216;2024-03-07T17:29:00;10.30;91.10
1704;DHT22;849;48.780;9.216;2024-03-07T17:31:44;10.30;91.00
1704;DHT22;849;48.780;9.216;2024-03-07T17:34:30;10.30;91.10
1704;DHT22;849;48.780;9.216;2024-03-07T17:37:14;10.20;91.00
1704;DHT22;849;48.780;9.216;2024-03-07T17:40:00;10.20;90.90
1704;DHT22;849;48.780;9.216;2024-03-07T17:42:46;10.20;91.20
1704;DHT22;849;48.780;9.216;2024-03-07T17:45:31;10.20;90.90
1704;DHT22;849;48.780;9.216;2024-03-07T17:48:18;10.20;91.00
1704;DHT22;849;48.780;9.216;2024-03-07T17:51:04;10.20;91.10
1704;DHT22;849;48.780;9.216;2024-03-07T17:53:51;10.10;91.30
1704;DHT22;849;48.780;9.216;2024-03-07T17:56:41;10.10;91.50
1704;DHT22;849;48.780;9.216;2024-03-07T17:59:27;10.20;91.80
1704;DHT22;849;48.780;9.216;2024-03-07T18:02:15;10.10;92.30
1704;DHT22;849;48.780;9.216;2024-03-07T18:05:03;10.10;92.60
1704;DHT22;849;48.780;9.216;2024-03-07T18:07:53;10.10;93.20
1704;DHT22;849;48.780;9.216;2024-03-07T18:10:39;10.10;92.90
1704;DHT22;849;48.780;9.216;2024-03-07T18:13:23;10.00;93.70
1704;DHT22;849;48.780;9.216;2024-03-07T18:16:07;9.90;94.30
1704;DHT22;849;48.780;9.216;2024-03-07T18:18:53;9.80;94.60
1704;DHT22;849;48.780;9.216;2024-03-07T18:21:38;9.90;94.70
1704;DHT22;849;48.780;9.216;2024-03-07T18:24:22;10.10;94.10
1704;DHT22;849;48.780;9.216;2024-03-07T18:27:06;9.90;95.00
1704;DHT22;849;48.780;9.216;2024-03-07T18:29:58;9.90;95.50
1704;DHT22;849;48.780;9.216;2024-03-07T18:32:54;9.80;95.40
1704;DHT22;849;48.780;9.216;2024-03-07T18:35:41;9.80;95.40
1704;DHT22;849;48.780;9.216;2024-03-07T18:38:29;9.90;96.50
1704;DHT22;849;48.780;9.216;2024-03-07T18:41:13;9.90;96.20
1704;DHT22;849;48.780;9.216;2024-03-07T18:43:57;9.90;95.90
1704;DHT22;849;48.780;9.216;2024-03-07T18:46:41;9.90;95.90
1704;DHT22;849;48.780;9.216;2024-03-07T18:49:25;9.90;96.00
1704;DHT22;849;48.780;9.216;2024-03-07T18:52:10;9.70;95.90
1704;DHT22;849;48.780;9.216;2024-03-07T18:54:56;9.80;96.30
1704;DHT22;849;48.780;9.216;2024-03-07T18:57:41;9.70;96.50
1704;DHT22;849;48.780;9.216;2024-03-07T19:00:27;9.80;96.80